Puerto Cabezas, Nicaragua
Current Conditions -  °F | °C
As of 7:00 AM on Monday 20 Oct 2014 (Local Time) from SKSP Reporting Station
Scattered Clouds Scattered Clouds  
Wind Chill: 82°   Ceiling: Unl
Heat Index: 91°   Visibility: 6mi
Dew Point: 77°   Wind: 2mph
Humidity: 84%   Direction: NA
Pressure: 29.86"   Gusts: NA
Location:  14.03°N, 83.39°W
Report Text: SKSP 201300Z VRB02KT 9999 FEW017 SCT090 28/25 A2986
Loading
Personal Weather Stations






























Interactive Weather Map
Tropical Storm Tracking
New forecast layout! Learn more

10-Day Weather Forecast

Advertisements
Track Severe Weather on mobile